地図

経路データ

SID SEASON NUMBER BASIN SUBBASIN NAME ISO_TIME NATURE LAT LON WMO_WIND WMO_PRES WMO_AGENCY TRACK_TYPE DIST2LAND LANDFALL IFLAG USA_AGENCY USA_ATCF_ID USA_LAT USA_LON USA_RECORD USA_STATUS USA_WIND USA_PRES USA_SSHS USA_R34_NE USA_R34_SE USA_R34_SW USA_R34_NW USA_R50_NE USA_R50_SE USA_R50_SW USA_R50_NW USA_R64_NE USA_R64_SE USA_R64_SW USA_R64_NW USA_POCI USA_ROCI USA_RMW USA_EYE TOKYO_LAT TOKYO_LON TOKYO_GRADE TOKYO_WIND TOKYO_PRES TOKYO_R50_DIR TOKYO_R50_LONG TOKYO_R50_SHORT TOKYO_R30_DIR TOKYO_R30_LONG TOKYO_R30_SHORT TOKYO_LAND CMA_LAT CMA_LON CMA_CAT CMA_WIND CMA_PRES HKO_LAT HKO_LON HKO_CAT HKO_WIND HKO_PRES NEWDELHI_LAT NEWDELHI_LON NEWDELHI_GRADE NEWDELHI_WIND NEWDELHI_PRES NEWDELHI_CI NEWDELHI_DP NEWDELHI_POCI REUNION_LAT REUNION_LON REUNION_TYPE REUNION_WIND REUNION_PRES REUNION_TNUM REUNION_CI REUNION_RMW REUNION_R34_NE REUNION_R34_SE REUNION_R34_SW REUNION_R34_NW REUNION_R50_NE REUNION_R50_SE REUNION_R50_SW REUNION_R50_NW REUNION_R64_NE REUNION_R64_SE REUNION_R64_SW REUNION_R64_NW BOM_LAT BOM_LON BOM_TYPE BOM_WIND BOM_PRES BOM_TNUM BOM_CI BOM_RMW BOM_R34_NE BOM_R34_SE BOM_R34_SW BOM_R34_NW BOM_R50_NE BOM_R50_SE BOM_R50_SW BOM_R50_NW BOM_R64_NE BOM_R64_SE BOM_R64_SW BOM_R64_NW BOM_ROCI BOM_POCI BOM_EYE BOM_POS_METHOD BOM_PRES_METHOD NADI_LAT NADI_LON NADI_CAT NADI_WIND NADI_PRES WELLINGTON_LAT WELLINGTON_LON WELLINGTON_WIND WELLINGTON_PRES DS824_LAT DS824_LON DS824_STAGE DS824_WIND DS824_PRES TD9636_LAT TD9636_LON TD9636_STAGE TD9636_WIND TD9636_PRES TD9635_LAT TD9635_LON TD9635_WIND TD9635_PRES TD9635_ROCI NEUMANN_LAT NEUMANN_LON NEUMANN_CLASS NEUMANN_WIND NEUMANN_PRES MLC_LAT MLC_LON MLC_CLASS MLC_WIND MLC_PRES USA_GUST BOM_GUST BOM_GUST_PER REUNION_GUST REUNION_GUST_PER USA_SEAHGT USA_SEARAD_NE USA_SEARAD_SE USA_SEARAD_SW USA_SEARAD_NW STORM_SPEED STORM_DIR
1966229N14257 1966 55 EP MM DOLORES 1966-08-16 12:00:00 TS 14.0000 -103.100 45 hurdat_epa main 426 426 O________OO___ hurdat_epa EP041966 14.0000 -103.100 TS 45 0 14.0000 -103.100 TC 45 14.0000 -103.100 2 16 266
1966229N14257 1966 55 EP MM DOLORES 1966-08-16 15:00:00 TS 13.9467 -103.899 main 479 479 P________PP___ EP041966 13.9426 -103.868 TS 45 0 13.9426 -103.868 TC 45 13.9629 -104.025 2 16 267
1966229N14257 1966 55 EP MM DOLORES 1966-08-16 18:00:00 TS 13.9058 -104.742 45 hurdat_epa main 507 507 O________OP___ hurdat_epa EP041966 13.9000 -104.700 TS 45 0 13.9000 -104.700 TC 45 13.9290 -104.911 2 17 268
1966229N14257 1966 55 EP MM DOLORES 1966-08-16 21:00:00 TS 13.8894 -105.631 main 541 541 P________PP___ EP041966 13.8854 -105.610 TS 45 0 13.8854 -105.610 TC 45 13.9054 -105.715 2 16 270
1966229N14257 1966 55 EP MM DOLORES 1966-08-17 00:00:00 TS 13.9000 -106.400 45 hurdat_epa main 581 581 O________OO___ hurdat_epa EP041966 13.9000 -106.400 TS 45 0 13.9000 -106.400 TC 45 13.9000 -106.400 2 12 272
1966229N14257 1966 55 EP MM DOLORES 1966-08-17 03:00:00 TS 13.9373 -106.882 main 611 609 P________PP___ EP041966 13.9420 -106.867 TS 45 0 13.9420 -106.867 TC 45 13.9188 -106.938 2 8 277
1966229N14257 1966 55 EP MM DOLORES 1966-08-17 06:00:00 TS 13.9922 -107.231 45 hurdat_epa main 622 622 O________OP___ hurdat_epa EP041966 14.0000 -107.200 TS 45 0 14.0000 -107.200 TC 45 13.9608 -107.357 2 7 278
1966229N14257 1966 55 EP MM DOLORES 1966-08-17 09:00:00 TS 14.0385 -107.632 main 650 648 P________PP___ EP041966 14.0425 -107.615 TS 45 0 14.0425 -107.615 TC 45 14.0224 -107.698 2 8 278
1966229N14257 1966 55 EP MM DOLORES 1966-08-17 12:00:00 TS 14.1000 -108.000 45 hurdat_epa main 664 664 O________OO___ hurdat_epa EP041966 14.1000 -108.000 TS 45 0 14.1000 -108.000 TC 45 14.1000 -108.000 2 7 283
1966229N14257 1966 55 EP MM DOLORES 1966-08-17 15:00:00 TS 14.1893 -108.311 main 672 672 P________PP___ EP041966 14.1924 -108.315 TS 45 0 14.1924 -108.315 TC 45 14.1768 -108.292 2 6 289
1966229N14257 1966 55 EP MM DOLORES 1966-08-17 18:00:00 TS 14.2938 -108.593 45 hurdat_epa main 681 681 O________OP___ hurdat_epa EP041966 14.3000 -108.600 TS 45 0 14.3000 -108.600 TC 45 14.2690 -108.563 2 6 290
1966229N14257 1966 55 EP MM DOLORES 1966-08-17 21:00:00 TS 14.3892 -108.866 main 692 692 P________PP___ EP041966 14.3923 -108.870 TS 45 0 14.3923 -108.870 TC 45 14.3767 -108.852 2 6 289
1966229N14257 1966 55 EP MM DOLORES 1966-08-18 00:00:00 TS 14.5000 -109.200 45 hurdat_epa main 704 704 O________OO___ hurdat_epa EP041966 14.5000 -109.200 TS 45 0 14.5000 -109.200 TC 45 14.5000 -109.200 2 8 288
1966229N14257 1966 55 EP MM DOLORES 1966-08-18 03:00:00 TS 14.6347 -109.664 main 732 724 P________PP___ EP041966 14.6425 -109.662 TS 45 0 14.6425 -109.662 TC 45 14.6035 -109.669 2 10 286
1966229N14257 1966 55 EP MM DOLORES 1966-08-18 06:00:00 TS 14.7851 -110.200 45 hurdat_epa main 755 755 O________OP___ hurdat_epa EP041966 14.8000 -110.200 TS 45 0 14.8000 -110.200 TC 45 14.7254 -110.199 2 11 285
1966229N14257 1966 55 EP MM DOLORES 1966-08-18 09:00:00 TS 14.9249 -110.751 main 793 785 P________PP___ EP041966 14.9350 -110.750 TS 45 0 14.9350 -110.750 TC 45 14.8846 -110.755 2 11 287
1966229N14257 1966 55 EP MM DOLORES 1966-08-18 12:00:00 TS 15.1000 -111.300 45 hurdat_epa main 818 818 O________OO___ hurdat_epa EP041966 15.1000 -111.300 TS 45 0 15.1000 -111.300 TC 45 15.1000 -111.300 2 11 292
1966229N14257 1966 55 EP MM DOLORES 1966-08-18 15:00:00 TS 15.3329 -111.807 main 846 846 P________PP___ EP041966 15.3198 -111.808 TS 60 0 15.3198 -111.808 TC 60 15.3852 -111.802 2 11 298
1966229N14257 1966 55 EP MM DOLORES 1966-08-18 18:00:00 TS 15.6200 -112.300 75 hurdat_epa main 851 832 O________OO___ hurdat_epa EP041966 15.6000 -112.300 HU 75 1 15.6000 -112.300 TC 75 15.7000 -112.300 3 11 302
1966229N14257 1966 55 EP MM DOLORES 1966-08-18 21:00:00 TS 15.9119 -112.786 main 836 815 P________PP___ EP041966 15.8973 -112.786 HU 75 1 15.8973 -112.786 TC 75 15.9704 -112.789 3 12 305
1966229N14257 1966 55 EP MM DOLORES 1966-08-19 00:00:00 TS 16.3000 -113.300 75 hurdat_epa main 815 789 O________OO___ hurdat_epa EP041966 16.3000 -113.300 HU 75 1 16.3000 -113.300 TC 75 16.3000 -113.300 4 14 312
1966229N14257 1966 55 EP MM DOLORES 1966-08-19 03:00:00 TS 16.8510 -113.871 main 785 767 P________PP___ EP041966 16.8624 -113.878 HU 75 1 16.8624 -113.878 TC 75 16.8055 -113.845 4 16 316
1966229N14257 1966 55 EP MM DOLORES 1966-08-19 06:00:00 TS 17.4848 -114.487 75 hurdat_epa main 764 754 O________OP___ hurdat_epa EP041966 17.5000 -114.500 HU 75 1 17.5000 -114.500 TC 75 17.4238 -114.437 4 17 317
1966229N14257 1966 55 EP MM DOLORES 1966-08-19 09:00:00 TS 18.1077 -115.114 main 754 754 P________PP___ EP041966 18.1146 -115.120 HU 75 1 18.1146 -115.120 TC 75 18.0801 -115.086 4 17 314
1966229N14257 1966 55 EP MM DOLORES 1966-08-19 12:00:00 TS 18.7000 -115.800 75 hurdat_epa main 764 757 O________OO___ hurdat_epa EP041966 18.7000 -115.800 HU 75 1 18.7000 -115.800 TC 75 18.7000 -115.800 2 18 309
1966229N14257 1966 55 EP MM DOLORES 1966-08-19 15:00:00 TS 19.2340 -116.575 main 770 761 P________PP___ EP041966 19.2372 -116.563 HU 60 0 19.2372 -116.563 TC 60 19.2212 -116.625 2 18 303
1966229N14257 1966 55 EP MM DOLORES 1966-08-19 18:00:00 TS 19.6974 -117.421 45 hurdat_epa main 780 780 O________OP___ hurdat_epa EP041966 19.7000 -117.400 TS 45 0 19.7000 -117.400 TC 45 19.6869 -117.506 2 19 297
1966229N14257 1966 55 EP MM DOLORES 1966-08-19 21:00:00 TS 20.0990 -118.341 main 817 817 P________PP___ EP041966 20.1029 -118.330 TS 45 0 20.1029 -118.330 TC 45 20.0838 -118.384 2 18 293
1966229N14257 1966 55 EP MM DOLORES 1966-08-20 00:00:00 TS 20.4000 -119.200 45 hurdat_epa main 870 870 O________OO___ hurdat_epa EP041966 20.4000 -119.200 TS 45 0 20.4000 -119.200 TC 45 20.4000 -119.200 2 15 289
1966229N14257 1966 55 EP MM DOLORES 1966-08-20 03:00:00 TS 20.5855 -119.849 main 909 909 P________PP___ EP041966 20.5792 -119.846 TS 45 0 20.5792 -119.846 TC 45 20.6104 -119.863 2 12 285
1966229N14257 1966 55 EP MM DOLORES 1966-08-20 06:00:00 TS 20.7099 -120.411 45 hurdat_epa main 947 947 O________OP___ hurdat_epa EP041966 20.7000 -120.400 TS 45 0 20.7000 -120.400 TC 45 20.7493 -120.457 2 11 283
1966229N14257 1966 55 EP MM DOLORES 1966-08-20 09:00:00 TS 20.8405 -120.993 main 979 978 P________PP___ EP041966 20.8346 -120.985 TS 45 0 20.8346 -120.985 TC 45 20.8638 -121.022 2 11 285
1966229N14257 1966 55 EP MM DOLORES 1966-08-20 12:00:00 TS 21.0000 -121.600 45 hurdat_epa main 1003 1003 O________OO___ hurdat_epa EP041966 21.0000 -121.600 TS 45 0 21.0000 -121.600 TC 45 21.0000 -121.600 2 13 288
1966229N14257 1966 55 EP MM DOLORES 1966-08-20 15:00:00 TS 21.2356 -122.292 main 1035 1034 P________PP___ EP041966 21.2350 -122.292 TS 45 0 21.2350 -122.292 TC 45 21.2380 -122.289 2 14 291
1966229N14257 1966 55 EP MM DOLORES 1966-08-20 18:00:00 TS 21.5002 -122.999 45 hurdat_epa main 1063 1063 O________OP___ hurdat_epa EP041966 21.5000 -123.000 TS 45 0 21.5000 -123.000 TC 45 21.5009 -122.993 2 14 292
1966229N14257 1966 55 EP MM DOLORES 1966-08-20 21:00:00 TS 21.7646 -123.685 main 1097 1097 P________PP___ EP041966 21.7650 -123.687 TS 45 0 21.7650 -123.687 TC 45 21.7631 -123.676 2 13 292
1966229N14257 1966 55 EP MM DOLORES 1966-08-21 00:00:00 TS 22.0000 -124.300 45 hurdat_epa main 1132 1132 O________OO___ hurdat_epa EP041966 22.0000 -124.300 TS 45 0 22.0000 -124.300 TC 45 22.0000 -124.300 2 11 292
1966229N14257 1966 55 EP MM DOLORES 1966-08-21 03:00:00 TS 22.1688 -124.792 main 1162 1162 P________PP___ EP041966 22.1646 -124.780 TS 45 0 22.1646 -124.780 TC 45 22.1858 -124.840 2 9 290
1966229N14257 1966 55 EP MM DOLORES 1966-08-21 06:00:00 TS 22.3088 -125.223 45 hurdat_epa main 1190 1190 O________OP___ hurdat_epa EP041966 22.3000 -125.200 TS 45 0 22.3000 -125.200 TC 45 22.3438 -125.313 2 9 290
1966229N14257 1966 55 EP MM DOLORES 1966-08-21 09:00:00 TS 22.4620 -125.684 main 1222 1222 P________PP___ EP041966 22.4575 -125.672 TS 45 0 22.4575 -125.672 TC 45 22.4799 -125.730 2 9 290
1966229N14257 1966 55 EP MM DOLORES 1966-08-21 12:00:00 TS 22.6000 -126.100 45 hurdat_epa main 1252 1252 O________OO___ hurdat_epa EP041966 22.6000 -126.100 TS 45 0 22.6000 -126.100 TC 45 22.6000 -126.100 2 7 290
1966229N14257 1966 55 EP MM DOLORES 1966-08-21 15:00:00 TS 22.7052 -126.417 main 1274 1274 P________PP___ EP041966 22.7073 -126.423 TS 45 0 22.7073 -126.423 TC 45 22.6967 -126.396 2 6 290
1966229N14257 1966 55 EP MM DOLORES 1966-08-21 18:00:00 TS 22.7966 -126.691 45 hurdat_epa main 1296 1296 O________OP___ hurdat_epa EP041966 22.8000 -126.700 TS 45 0 22.8000 -126.700 TC 45 22.7828 -126.657 2 5 290
1966229N14257 1966 55 EP MM DOLORES 1966-08-21 21:00:00 TS 22.8832 -126.952 main 1318 1318 P________PP___ EP041966 22.8846 -126.955 TS 45 0 22.8846 -126.955 TC 45 22.8777 -126.939 2 6 290
1966229N14257 1966 55 EP MM DOLORES 1966-08-22 00:00:00 TS 23.0000 -127.300 45 hurdat_epa main 1341 1341 O________OO___ hurdat_epa EP041966 23.0000 -127.300 TS 45 0 23.0000 -127.300 TC 45 23.0000 -127.300 2 9 290
1966229N14257 1966 55 EP MM DOLORES 1966-08-22 03:00:00 TS 23.1791 -127.839 main 1378 1378 P________PP___ EP041966 23.1852 -127.855 TS 45 0 23.1852 -127.855 TC 45 23.1545 -127.778 2 11 290
1966229N14257 1966 55 EP MM DOLORES 1966-08-22 06:00:00 TS 23.3878 -128.469 45 hurdat_epa main 1434 1434 O________OP___ hurdat_epa EP041966 23.4000 -128.500 TS 45 0 23.4000 -128.500 TC 45 23.3391 -128.344 2 12 290
1966229N14257 1966 55 EP MM DOLORES 1966-08-22 09:00:00 TS 23.5722 -129.048 main 1459 1459 P________PP___ EP041966 23.5768 -129.063 TS 45 0 23.5768 -129.063 TC 45 23.5540 -128.988 2 12 290
1966229N14257 1966 55 EP MM DOLORES 1966-08-22 12:00:00 TS 23.8000 -129.700 45 hurdat_epa main 1480 1480 O________OO___ hurdat_epa EP041966 23.8000 -129.700 TS 45 0 23.8000 -129.700 TC 45 23.8000 -129.700 2 15 293
1966229N14257 1966 55 EP MM DOLORES 1966-08-22 15:00:00 TS 24.1371 -130.522 main 1501 1499 P________PP___ EP041966 24.1427 -130.519 TS 45 0 24.1427 -130.519 TC 45 24.1145 -130.534 2 17 294
1966229N14257 1966 55 EP MM DOLORES 1966-08-22 18:00:00 TS 24.4898 -131.404 45 hurdat_epa main 1524 1524 O________OP___ hurdat_epa EP041966 24.5000 -131.400 TS 45 0 24.5000 -131.400 TC 45 24.4489 -131.421 2 17 292
1966229N14257 1966 55 EP MM DOLORES 1966-08-22 21:00:00 TS 24.7879 -132.274 main 1561 1561 P________PP___ EP041966 24.7953 -132.275 TS 45 0 24.7953 -132.275 TC 45 24.7584 -132.272 2 15 289
1966229N14257 1966 55 EP MM DOLORES 1966-08-23 00:00:00 TS 25.0000 -133.000 45 hurdat_epa main 1595 1595 O________OO___ hurdat_epa EP041966 25.0000 -133.000 TS 45 0 25.0000 -133.000 TC 45 25.0000 -133.000 2 11 286
1966229N14257 1966 55 EP MM DOLORES 1966-08-23 03:00:00 TS 25.0881 -133.439 main 1617 1617 P________PP___ EP041966 25.0792 -133.418 TS 45 0 25.0792 -133.418 TC 45 25.1235 -133.521 2 7 280
1966229N14257 1966 55 EP MM DOLORES 1966-08-23 06:00:00 TS 25.1159 -133.741 45 hurdat_epa main 1639 1639 O________OP___ hurdat_epa EP041966 25.1000 -133.700 TS 45 0 25.1000 -133.700 TC 45 25.1797 -133.905 2 6 277
1966229N14257 1966 55 EP MM DOLORES 1966-08-23 09:00:00 TS 25.1593 -134.101 main 1661 1661 P________PP___ EP041966 25.1501 -134.080 TS 45 0 25.1501 -134.080 TC 45 25.1962 -134.186 2 6 278
1966229N14257 1966 55 EP MM DOLORES 1966-08-23 12:00:00 TS 25.2000 -134.400 45 hurdat_epa main 1684 1684 O________OO___ hurdat_epa EP041966 25.2000 -134.400 TS 45 0 25.2000 -134.400 TC 45 25.2000 -134.400 2 5 282
1966229N14257 1966 55 EP MM DOLORES 1966-08-23 15:00:00 TS 25.2522 -134.588 main 1692 1692 P________PP___ EP041966 25.2573 -134.580 TS 45 0 25.2573 -134.580 TC 45 25.2318 -134.620 2 3 288
1966229N14257 1966 55 EP MM DOLORES 1966-08-23 18:00:00 TS 25.2914 -134.717 45 hurdat_epa main 1700 1700 O________OP___ hurdat_epa EP041966 25.3000 -134.700 TS 45 0 25.3000 -134.700 TC 45 25.2570 -134.783 2 3 281
1966229N14257 1966 55 EP MM DOLORES 1966-08-23 21:00:00 TS 25.3018 -134.867 main 1715 1715 P________PP___ EP041966 25.3075 -134.858 TS 45 0 25.3075 -134.858 TC 45 25.2788 -134.904 2 3 272
1966229N14257 1966 55 EP MM DOLORES 1966-08-24 00:00:00 TS 25.3000 -135.000 45 hurdat_epa main 1723 1723 O________OO___ hurdat_epa EP041966 25.3000 -135.000 TS 45 0 25.3000 -135.000 TC 45 25.3000 -135.000 2 2 268
1966229N14257 1966 55 EP MM DOLORES 1966-08-24 03:00:00 TS 25.2949 -135.114 main 1731 1731 P________PP___ EP041966 25.2925 -135.115 TS 45 0 25.2925 -135.115 TC 45 25.3046 -135.109 2 2 271
1966229N14257 1966 55 EP MM DOLORES 1966-08-24 06:00:00 TS 25.3025 -135.199 45 hurdat_epa main 1739 1739 O________OP___ hurdat_epa EP041966 25.3000 -135.200 TS 45 0 25.3000 -135.200 TC 45 25.3124 -135.195 2 1 284
1966229N14257 1966 55 EP MM DOLORES 1966-08-24 09:00:00 TS 25.3298 -135.264 main 1746 1739 P________PP___ EP041966 25.3275 -135.265 TS 45 0 25.3275 -135.265 TC 45 25.3390 -135.259 2 1 318
1966229N14257 1966 55 EP MM DOLORES 1966-08-24 12:00:00 TS 25.4000 -135.300 45 hurdat_epa main 1739 1732 O________OO___ hurdat_epa EP041966 25.4000 -135.300 TS 45 0 25.4000 -135.300 TC 45 25.4000 -135.300 2 2 354
1966229N14257 1966 55 EP MM DOLORES 1966-08-24 15:00:00 TS 25.5380 -135.294 main 1732 1719 P________PP___ EP041966 25.5350 -135.308 TS 45 0 25.5350 -135.308 TC 45 25.5500 -135.240 2 3 4
1966229N14257 1966 55 EP MM DOLORES 1966-08-24 18:00:00 TS 25.7058 -135.275 45 hurdat_epa main 1719 1697 O________OP___ hurdat_epa EP041966 25.7000 -135.300 TS 45 0 25.7000 -135.300 TC 45 25.7289 -135.173 2 4 12
1966229N14257 1966 55 EP MM DOLORES 1966-08-24 21:00:00 TS 25.8825 -135.220 main 1697 1690 P________PP___ EP041966 25.8798 -135.233 TS 35 0 25.8798 -135.233 TC 35 25.8933 -135.168 2 3 0
1966229N14257 1966 55 EP MM DOLORES 1966-08-25 00:00:00 TS 26.0000 -135.300 25 hurdat_epa main 1698 1698 O________OO___ hurdat_epa EP041966 26.0000 -135.300 TD 25 -1 26.0000 -135.300 TC 25 26.0000 -135.300 6 4 284
1966229N14257 1966 55 EP MM DOLORES 1966-08-25 03:00:00 TS 25.9814 -135.658 main 1730 1730 P________PP___ EP041966 25.9726 -135.668 TD 25 -1 25.9726 -135.668 TC 25 26.0166 -135.619 6 8 263
1966229N14257 1966 55 EP MM DOLORES 1966-08-25 06:00:00 TS 25.9088 -136.183 25 hurdat_epa main 1777 1777 O________OP___ hurdat_epa EP041966 25.9000 -136.200 TD 25 -1 25.9000 -136.200 TC 25 25.9558 -136.094 6 10 264
1966229N14257 1966 55 EP MM DOLORES 1966-08-25 09:00:00 TS 25.8869 -136.728 main 1818 1818 P________PP___ EP041966 25.8925 -136.735 TD 25 -1 25.8925 -136.735 TC 25 25.8420 -136.672 6 10 269
1966229N14257 1966 55 EP MM DOLORES 1966-08-25 12:00:00 TS 25.8846 -137.300 25 hurdat_epa main 1863 1863 O________OO___ hurdat_epa EP041966 25.9000 -137.300 TD 25 -1 25.9000 -137.300 TC 25 25.7000 -137.300 6 10 271
1966229N14257 1966 55 EP MM DOLORES 1966-08-25 15:00:00 TS 25.9028 -137.855 main 1872 1825 P________P____ EP041966 25.9028 -137.855 TD 25 -1 25.9028 -137.855 TC 25 6 10 271
1966229N14257 1966 55 EP MM DOLORES 1966-08-25 18:00:00 TS 25.9000 -138.400 25 hurdat_epa main 1825 O________O____ hurdat_epa EP041966 25.9000 -138.400 TD 25 -1 25.9000 -138.400 TC 25 6 10 270

IBTrACS Databaseについて

本データベースは、米国NOAAが公開する1842年以降の世界の熱帯低気圧のベストトラックデータアーカイブInternational Best Track Archive for Climate Stewardship (IBTrACS)を、ウェブで閲覧しやすい形式に変換したものです。

最終更新日:2021-12-03